sensor_id;sensor_type;location;lat;lon;timestamp;P1;durP1;ratioP1;P2;durP2;ratioP2
13234;SDS011;6683;48.506;9.050;2022-12-18T00:01:51;20.87;;;11.43;;
13234;SDS011;6683;48.506;9.050;2022-12-18T00:04:54;18.57;;;10.40;;
13234;SDS011;6683;48.506;9.050;2022-12-18T00:07:56;19.60;;;10.47;;
13234;SDS011;6683;48.506;9.050;2022-12-18T00:11:04;19.40;;;9.83;;
13234;SDS011;6683;48.506;9.050;2022-12-18T00:14:08;18.33;;;10.23;;
13234;SDS011;6683;48.506;9.050;2022-12-18T00:17:12;20.90;;;10.87;;
13234;SDS011;6683;48.506;9.050;2022-12-18T00:20:15;18.80;;;10.83;;
13234;SDS011;6683;48.506;9.050;2022-12-18T00:23:21;18.80;;;10.33;;
13234;SDS011;6683;48.506;9.050;2022-12-18T00:26:26;20.23;;;11.00;;
13234;SDS011;6683;48.506;9.050;2022-12-18T00:29:30;17.73;;;11.03;;
13234;SDS011;6683;48.506;9.050;2022-12-18T00:32:33;25.00;;;11.27;;
13234;SDS011;6683;48.506;9.050;2022-12-18T00:35:35;18.93;;;11.70;;
13234;SDS011;6683;48.506;9.050;2022-12-18T00:38:38;20.00;;;11.13;;
13234;SDS011;6683;48.506;9.050;2022-12-18T00:41:42;19.30;;;10.43;;
13234;SDS011;6683;48.506;9.050;2022-12-18T00:45:02;21.20;;;11.40;;
13234;SDS011;6683;48.506;9.050;2022-12-18T00:48:05;23.30;;;12.50;;
13234;SDS011;6683;48.506;9.050;2022-12-18T00:51:09;20.67;;;11.23;;
13234;SDS011;6683;48.506;9.050;2022-12-18T00:54:12;24.20;;;11.33;;
13234;SDS011;6683;48.506;9.050;2022-12-18T00:57:15;23.10;;;11.37;;
13234;SDS011;6683;48.506;9.050;2022-12-18T01:00:18;20.90;;;11.30;;
13234;SDS011;6683;48.506;9.050;2022-12-18T01:03:21;18.00;;;10.23;;
13234;SDS011;6683;48.506;9.050;2022-12-18T01:06:24;22.70;;;11.47;;
13234;SDS011;6683;48.506;9.050;2022-12-18T01:09:26;22.30;;;11.43;;
13234;SDS011;6683;48.506;9.050;2022-12-18T01:12:30;20.13;;;10.53;;
13234;SDS011;6683;48.506;9.050;2022-12-18T01:15:33;17.20;;;10.03;;
13234;SDS011;6683;48.506;9.050;2022-12-18T01:18:35;23.57;;;11.33;;
13234;SDS011;6683;48.506;9.050;2022-12-18T01:21:38;20.17;;;11.07;;
13234;SDS011;6683;48.506;9.050;2022-12-18T01:24:40;18.17;;;10.80;;
13234;SDS011;6683;48.506;9.050;2022-12-18T01:27:44;18.77;;;11.50;;
13234;SDS011;6683;48.506;9.050;2022-12-18T01:30:47;20.67;;;11.80;;
13234;SDS011;6683;48.506;9.050;2022-12-18T01:33:50;18.70;;;10.87;;
13234;SDS011;6683;48.506;9.050;2022-12-18T01:36:52;18.70;;;10.83;;
13234;SDS011;6683;48.506;9.050;2022-12-18T01:39:55;17.37;;;10.30;;
13234;SDS011;6683;48.506;9.050;2022-12-18T01:42:59;20.60;;;11.47;;
13234;SDS011;6683;48.506;9.050;2022-12-18T01:46:01;19.53;;;10.63;;
13234;SDS011;6683;48.506;9.050;2022-12-18T01:49:04;19.43;;;11.43;;
13234;SDS011;6683;48.506;9.050;2022-12-18T01:52:06;23.60;;;11.27;;
13234;SDS011;6683;48.506;9.050;2022-12-18T01:55:09;19.30;;;11.27;;
13234;SDS011;6683;48.506;9.050;2022-12-18T01:58:15;21.53;;;10.90;;
13234;SDS011;6683;48.506;9.050;2022-12-18T02:01:18;24.57;;;11.13;;
13234;SDS011;6683;48.506;9.050;2022-12-18T02:04:23;19.90;;;11.17;;
13234;SDS011;6683;48.506;9.050;2022-12-18T02:07:30;19.37;;;10.43;;
13234;SDS011;6683;48.506;9.050;2022-12-18T02:10:45;19.63;;;8.93;;
13234;SDS011;6683;48.506;9.050;2022-12-18T02:13:59;19.17;;;11.90;;
13234;SDS011;6683;48.506;9.050;2022-12-18T02:17:18;18.27;;;10.50;;
13234;SDS011;6683;48.506;9.050;2022-12-18T02:20:25;16.50;;;9.47;;
13234;SDS011;6683;48.506;9.050;2022-12-18T02:23:41;17.23;;;9.47;;
13234;SDS011;6683;48.506;9.050;2022-12-18T02:26:56;19.03;;;9.77;;
13234;SDS011;6683;48.506;9.050;2022-12-18T02:30:03;20.17;;;10.43;;
13234;SDS011;6683;48.506;9.050;2022-12-18T02:33:07;15.27;;;9.43;;
13234;SDS011;6683;48.506;9.050;2022-12-18T02:36:12;15.53;;;9.63;;
13234;SDS011;6683;48.506;9.050;2022-12-18T02:39:16;22.07;;;10.47;;
13234;SDS011;6683;48.506;9.050;2022-12-18T02:42:23;19.23;;;9.87;;
13234;SDS011;6683;48.506;9.050;2022-12-18T02:45:26;19.83;;;10.20;;
13234;SDS011;6683;48.506;9.050;2022-12-18T02:48:31;16.23;;;9.20;;
13234;SDS011;6683;48.506;9.050;2022-12-18T02:51:38;20.10;;;10.00;;
13234;SDS011;6683;48.506;9.050;2022-12-18T02:54:53;17.23;;;9.40;;
13234;SDS011;6683;48.506;9.050;2022-12-18T02:58:09;15.07;;;9.13;;
13234;SDS011;6683;48.506;9.050;2022-12-18T03:01:19;17.80;;;9.83;;
13234;SDS011;6683;48.506;9.050;2022-12-18T03:04:30;17.17;;;9.33;;
13234;SDS011;6683;48.506;9.050;2022-12-18T03:07:42;17.47;;;9.30;;
13234;SDS011;6683;48.506;9.050;2022-12-18T03:10:51;17.47;;;9.60;;
13234;SDS011;6683;48.506;9.050;2022-12-18T03:14:02;18.80;;;10.33;;
13234;SDS011;6683;48.506;9.050;2022-12-18T03:17:08;18.00;;;10.13;;
13234;SDS011;6683;48.506;9.050;2022-12-18T03:20:18;20.83;;;10.67;;
13234;SDS011;6683;48.506;9.050;2022-12-18T03:23:24;19.67;;;10.23;;
13234;SDS011;6683;48.506;9.050;2022-12-18T03:26:31;21.73;;;10.13;;
13234;SDS011;6683;48.506;9.050;2022-12-18T03:29:38;20.13;;;10.67;;
13234;SDS011;6683;48.506;9.050;2022-12-18T03:32:46;14.00;;;8.90;;
13234;SDS011;6683;48.506;9.050;2022-12-18T03:35:52;18.27;;;9.30;;
13234;SDS011;6683;48.506;9.050;2022-12-18T03:38:55;22.53;;;11.43;;
13234;SDS011;6683;48.506;9.050;2022-12-18T03:41:58;17.17;;;9.70;;
13234;SDS011;6683;48.506;9.050;2022-12-18T03:45:11;19.47;;;9.57;;
13234;SDS011;6683;48.506;9.050;2022-12-18T03:48:21;17.97;;;10.03;;
13234;SDS011;6683;48.506;9.050;2022-12-18T03:51:33;21.17;;;10.33;;
13234;SDS011;6683;48.506;9.050;2022-12-18T03:54:41;17.93;;;9.93;;
13234;SDS011;6683;48.506;9.050;2022-12-18T03:57:46;18.50;;;9.87;;
13234;SDS011;6683;48.506;9.050;2022-12-18T04:00:52;18.90;;;10.57;;
13234;SDS011;6683;48.506;9.050;2022-12-18T04:03:57;21.07;;;10.73;;
13234;SDS011;6683;48.506;9.050;2022-12-18T04:07:03;23.27;;;11.57;;
13234;SDS011;6683;48.506;9.050;2022-12-18T04:10:07;20.27;;;11.07;;
13234;SDS011;6683;48.506;9.050;2022-12-18T04:13:21;19.90;;;10.70;;
13234;SDS011;6683;48.506;9.050;2022-12-18T04:16:25;16.57;;;9.43;;
13234;SDS011;6683;48.506;9.050;2022-12-18T04:19:28;31.43;;;11.10;;
13234;SDS011;6683;48.506;9.050;2022-12-18T04:22:30;20.33;;;10.07;;
13234;SDS011;6683;48.506;9.050;2022-12-18T04:25:32;16.43;;;9.30;;
13234;SDS011;6683;48.506;9.050;2022-12-18T04:28:35;18.53;;;9.77;;
13234;SDS011;6683;48.506;9.050;2022-12-18T04:31:39;15.37;;;8.73;;
13234;SDS011;6683;48.506;9.050;2022-12-18T04:34:41;17.60;;;9.37;;
13234;SDS011;6683;48.506;9.050;2022-12-18T04:37:44;17.50;;;8.87;;
13234;SDS011;6683;48.506;9.050;2022-12-18T04:40:46;15.10;;;8.63;;
13234;SDS011;6683;48.506;9.050;2022-12-18T04:43:48;16.80;;;9.40;;
13234;SDS011;6683;48.506;9.050;2022-12-18T04:46:52;18.73;;;10.37;;
13234;SDS011;6683;48.506;9.050;2022-12-18T04:49:55;15.60;;;8.63;;
13234;SDS011;6683;48.506;9.050;2022-12-18T04:52:58;14.93;;;8.67;;
13234;SDS011;6683;48.506;9.050;2022-12-18T04:56:05;17.67;;;10.53;;
13234;SDS011;6683;48.506;9.050;2022-12-18T04:59:08;21.07;;;10.40;;
13234;SDS011;6683;48.506;9.050;2022-12-18T05:02:12;19.00;;;9.93;;
13234;SDS011;6683;48.506;9.050;2022-12-18T05:05:14;20.40;;;10.20;;
13234;SDS011;6683;48.506;9.050;2022-12-18T05:08:17;16.60;;;9.00;;
13234;SDS011;6683;48.506;9.050;2022-12-18T05:11:19;17.43;;;8.90;;
13234;SDS011;6683;48.506;9.050;2022-12-18T05:14:22;16.83;;;8.93;;
13234;SDS011;6683;48.506;9.050;2022-12-18T05:17:26;14.93;;;8.37;;
13234;SDS011;6683;48.506;9.050;2022-12-18T05:20:28;13.87;;;7.83;;
13234;SDS011;6683;48.506;9.050;2022-12-18T05:23:30;13.60;;;7.80;;
13234;SDS011;6683;48.506;9.050;2022-12-18T05:26:33;15.67;;;8.90;;
13234;SDS011;6683;48.506;9.050;2022-12-18T05:29:35;13.97;;;8.07;;
13234;SDS011;6683;48.506;9.050;2022-12-18T05:32:39;13.63;;;8.07;;
13234;SDS011;6683;48.506;9.050;2022-12-18T05:35:42;13.87;;;8.10;;
13234;SDS011;6683;48.506;9.050;2022-12-18T05:38:44;13.53;;;7.67;;
13234;SDS011;6683;48.506;9.050;2022-12-18T05:41:47;17.03;;;9.43;;
13234;SDS011;6683;48.506;9.050;2022-12-18T05:44:49;15.73;;;8.33;;
13234;SDS011;6683;48.506;9.050;2022-12-18T05:47:53;12.00;;;7.53;;
13234;SDS011;6683;48.506;9.050;2022-12-18T05:50:55;16.87;;;8.40;;
13234;SDS011;6683;48.506;9.050;2022-12-18T05:54:07;14.40;;;8.27;;
13234;SDS011;6683;48.506;9.050;2022-12-18T05:57:09;15.57;;;8.10;;
13234;SDS011;6683;48.506;9.050;2022-12-18T06:00:12;11.90;;;7.47;;
13234;SDS011;6683;48.506;9.050;2022-12-18T06:03:17;14.33;;;7.97;;
13234;SDS011;6683;48.506;9.050;2022-12-18T06:06:20;12.63;;;7.77;;
13234;SDS011;6683;48.506;9.050;2022-12-18T06:09:25;17.27;;;8.93;;
13234;SDS011;6683;48.506;9.050;2022-12-18T06:12:27;14.80;;;7.93;;
13234;SDS011;6683;48.506;9.050;2022-12-18T06:15:30;16.27;;;8.10;;
13234;SDS011;6683;48.506;9.050;2022-12-18T06:18:34;13.63;;;8.03;;
13234;SDS011;6683;48.506;9.050;2022-12-18T06:21:36;15.50;;;8.80;;
13234;SDS011;6683;48.506;9.050;2022-12-18T06:24:38;16.10;;;8.83;;
13234;SDS011;6683;48.506;9.050;2022-12-18T06:27:40;13.27;;;7.83;;
13234;SDS011;6683;48.506;9.050;2022-12-18T06:30:43;12.10;;;7.03;;
13234;SDS011;6683;48.506;9.050;2022-12-18T06:33:47;11.30;;;7.47;;
13234;SDS011;6683;48.506;9.050;2022-12-18T06:36:49;21.13;;;8.10;;
13234;SDS011;6683;48.506;9.050;2022-12-18T06:39:52;15.13;;;8.30;;
13234;SDS011;6683;48.506;9.050;2022-12-18T06:42:56;16.90;;;8.43;;
13234;SDS011;6683;48.506;9.050;2022-12-18T06:45:59;15.10;;;8.43;;
13234;SDS011;6683;48.506;9.050;2022-12-18T06:49:03;15.50;;;8.53;;
13234;SDS011;6683;48.506;9.050;2022-12-18T06:52:06;16.43;;;8.73;;
13234;SDS011;6683;48.506;9.050;2022-12-18T06:55:09;14.63;;;8.03;;
13234;SDS011;6683;48.506;9.050;2022-12-18T06:58:12;17.13;;;8.60;;
13234;SDS011;6683;48.506;9.050;2022-12-18T07:01:15;17.37;;;8.73;;
13234;SDS011;6683;48.506;9.050;2022-12-18T07:04:18;20.07;;;9.50;;
13234;SDS011;6683;48.506;9.050;2022-12-18T07:07:21;20.57;;;10.37;;
13234;SDS011;6683;48.506;9.050;2022-12-18T07:10:23;17.87;;;10.40;;
13234;SDS011;6683;48.506;9.050;2022-12-18T07:13:25;16.93;;;8.17;;
13234;SDS011;6683;48.506;9.050;2022-12-18T07:16:28;15.83;;;8.80;;
13234;SDS011;6683;48.506;9.050;2022-12-18T07:19:32;15.33;;;8.43;;
13234;SDS011;6683;48.506;9.050;2022-12-18T07:22:34;15.10;;;9.07;;
13234;SDS011;6683;48.506;9.050;2022-12-18T07:25:37;17.07;;;9.03;;
13234;SDS011;6683;48.506;9.050;2022-12-18T07:28:40;19.27;;;9.37;;
13234;SDS011;6683;48.506;9.050;2022-12-18T07:31:43;13.10;;;7.43;;
13234;SDS011;6683;48.506;9.050;2022-12-18T07:34:47;20.57;;;9.33;;
13234;SDS011;6683;48.506;9.050;2022-12-18T07:37:50;10.67;;;7.17;;
13234;SDS011;6683;48.506;9.050;2022-12-18T07:40:52;16.70;;;8.47;;
13234;SDS011;6683;48.506;9.050;2022-12-18T07:43:55;16.47;;;8.50;;
13234;SDS011;6683;48.506;9.050;2022-12-18T07:46:57;13.33;;;8.03;;
13234;SDS011;6683;48.506;9.050;2022-12-18T07:50:01;14.40;;;7.97;;
13234;SDS011;6683;48.506;9.050;2022-12-18T07:53:04;13.60;;;6.97;;
13234;SDS011;6683;48.506;9.050;2022-12-18T07:56:08;14.27;;;8.10;;
13234;SDS011;6683;48.506;9.050;2022-12-18T07:59:11;16.63;;;8.83;;
13234;SDS011;6683;48.506;9.050;2022-12-18T08:02:14;16.37;;;7.30;;
13234;SDS011;6683;48.506;9.050;2022-12-18T08:05:18;17.13;;;8.47;;
13234;SDS011;6683;48.506;9.050;2022-12-18T08:08:23;14.93;;;7.60;;
13234;SDS011;6683;48.506;9.050;2022-12-18T08:11:27;10.53;;;6.57;;
13234;SDS011;6683;48.506;9.050;2022-12-18T08:14:30;10.73;;;6.80;;
13234;SDS011;6683;48.506;9.050;2022-12-18T08:17:32;13.77;;;8.40;;
13234;SDS011;6683;48.506;9.050;2022-12-18T08:20:36;14.23;;;7.97;;
13234;SDS011;6683;48.506;9.050;2022-12-18T08:23:38;13.33;;;8.03;;
13234;SDS011;6683;48.506;9.050;2022-12-18T08:26:41;15.73;;;8.80;;
13234;SDS011;6683;48.506;9.050;2022-12-18T08:29:43;14.07;;;8.23;;
13234;SDS011;6683;48.506;9.050;2022-12-18T08:32:46;14.47;;;8.10;;
13234;SDS011;6683;48.506;9.050;2022-12-18T08:35:50;12.97;;;7.30;;
13234;SDS011;6683;48.506;9.050;2022-12-18T08:38:52;20.67;;;12.60;;
13234;SDS011;6683;48.506;9.050;2022-12-18T08:41:55;16.03;;;8.83;;
13234;SDS011;6683;48.506;9.050;2022-12-18T08:45:15;39.83;;;22.73;;
13234;SDS011;6683;48.506;9.050;2022-12-18T08:48:18;23.23;;;11.57;;
13234;SDS011;6683;48.506;9.050;2022-12-18T08:51:21;20.20;;;10.97;;
13234;SDS011;6683;48.506;9.050;2022-12-18T08:54:24;28.80;;;16.87;;
13234;SDS011;6683;48.506;9.050;2022-12-18T08:57:26;23.37;;;14.87;;
13234;SDS011;6683;48.506;9.050;2022-12-18T09:00:28;17.80;;;10.70;;
13234;SDS011;6683;48.506;9.050;2022-12-18T09:03:31;18.20;;;10.60;;
13234;SDS011;6683;48.506;9.050;2022-12-18T09:06:34;18.30;;;10.90;;
13234;SDS011;6683;48.506;9.050;2022-12-18T09:09:37;16.80;;;9.83;;
13234;SDS011;6683;48.506;9.050;2022-12-18T09:12:40;19.63;;;9.93;;
13234;SDS011;6683;48.506;9.050;2022-12-18T09:15:42;15.73;;;8.97;;
13234;SDS011;6683;48.506;9.050;2022-12-18T09:18:47;17.73;;;9.97;;
13234;SDS011;6683;48.506;9.050;2022-12-18T09:21:50;20.37;;;10.43;;
13234;SDS011;6683;48.506;9.050;2022-12-18T09:24:53;19.33;;;10.23;;
13234;SDS011;6683;48.506;9.050;2022-12-18T09:27:55;17.90;;;9.30;;
13234;SDS011;6683;48.506;9.050;2022-12-18T09:30:58;17.77;;;9.90;;
13234;SDS011;6683;48.506;9.050;2022-12-18T09:34:00;16.57;;;9.73;;
13234;SDS011;6683;48.506;9.050;2022-12-18T09:37:04;16.93;;;8.83;;
13234;SDS011;6683;48.506;9.050;2022-12-18T09:40:09;16.27;;;10.57;;
13234;SDS011;6683;48.506;9.050;2022-12-18T09:43:17;16.33;;;9.70;;
13234;SDS011;6683;48.506;9.050;2022-12-18T09:46:22;19.37;;;10.67;;
13234;SDS011;6683;48.506;9.050;2022-12-18T09:49:29;18.47;;;10.80;;
13234;SDS011;6683;48.506;9.050;2022-12-18T09:52:37;19.20;;;10.70;;
13234;SDS011;6683;48.506;9.050;2022-12-18T09:55:45;19.77;;;10.77;;
13234;SDS011;6683;48.506;9.050;2022-12-18T09:58:51;17.27;;;10.57;;
13234;SDS011;6683;48.506;9.050;2022-12-18T10:01:59;21.60;;;12.03;;
13234;SDS011;6683;48.506;9.050;2022-12-18T10:05:12;21.07;;;11.93;;
13234;SDS011;6683;48.506;9.050;2022-12-18T10:08:21;22.73;;;12.80;;
13234;SDS011;6683;48.506;9.050;2022-12-18T10:11:34;24.07;;;13.23;;
13234;SDS011;6683;48.506;9.050;2022-12-18T10:14:46;32.77;;;15.17;;
13234;SDS011;6683;48.506;9.050;2022-12-18T10:17:56;35.00;;;17.23;;
13234;SDS011;6683;48.506;9.050;2022-12-18T10:21:10;37.77;;;18.87;;
13234;SDS011;6683;48.506;9.050;2022-12-18T10:24:20;41.43;;;21.93;;
13234;SDS011;6683;48.506;9.050;2022-12-18T10:27:29;38.73;;;21.93;;
13234;SDS011;6683;48.506;9.050;2022-12-18T10:30:32;35.90;;;21.17;;
13234;SDS011;6683;48.506;9.050;2022-12-18T10:33:34;39.23;;;21.23;;
13234;SDS011;6683;48.506;9.050;2022-12-18T10:36:37;32.90;;;20.10;;
13234;SDS011;6683;48.506;9.050;2022-12-18T10:39:41;33.87;;;19.07;;
13234;SDS011;6683;48.506;9.050;2022-12-18T10:42:44;33.63;;;20.70;;
13234;SDS011;6683;48.506;9.050;2022-12-18T10:45:57;32.37;;;19.87;;
13234;SDS011;6683;48.506;9.050;2022-12-18T10:49:19;31.03;;;20.30;;
13234;SDS011;6683;48.506;9.050;2022-12-18T10:52:27;32.47;;;18.70;;
13234;SDS011;6683;48.506;9.050;2022-12-18T10:55:32;29.03;;;18.93;;
13234;SDS011;6683;48.506;9.050;2022-12-18T10:58:39;24.77;;;17.37;;
13234;SDS011;6683;48.506;9.050;2022-12-18T11:01:46;26.97;;;17.40;;
13234;SDS011;6683;48.506;9.050;2022-12-18T11:04:51;29.23;;;18.20;;
13234;SDS011;6683;48.506;9.050;2022-12-18T11:07:54;30.37;;;18.07;;
13234;SDS011;6683;48.506;9.050;2022-12-18T11:11:00;24.17;;;17.20;;
13234;SDS011;6683;48.506;9.050;2022-12-18T11:14:04;28.97;;;18.90;;
13234;SDS011;6683;48.506;9.050;2022-12-18T11:17:18;29.03;;;18.40;;
13234;SDS011;6683;48.506;9.050;2022-12-18T11:20:27;24.30;;;17.23;;
13234;SDS011;6683;48.506;9.050;2022-12-18T11:23:34;25.83;;;17.20;;
13234;SDS011;6683;48.506;9.050;2022-12-18T11:26:39;24.03;;;17.50;;
13234;SDS011;6683;48.506;9.050;2022-12-18T11:29:43;26.20;;;17.77;;
13234;SDS011;6683;48.506;9.050;2022-12-18T11:32:46;32.63;;;19.33;;
13234;SDS011;6683;48.506;9.050;2022-12-18T11:35:50;29.03;;;18.33;;
13234;SDS011;6683;48.506;9.050;2022-12-18T11:38:57;28.80;;;18.63;;
13234;SDS011;6683;48.506;9.050;2022-12-18T11:42:11;27.30;;;18.10;;
13234;SDS011;6683;48.506;9.050;2022-12-18T11:45:30;25.33;;;18.30;;
13234;SDS011;6683;48.506;9.050;2022-12-18T11:48:37;25.03;;;17.83;;
13234;SDS011;6683;48.506;9.050;2022-12-18T11:51:47;36.30;;;19.13;;
13234;SDS011;6683;48.506;9.050;2022-12-18T11:54:57;26.33;;;18.13;;
13234;SDS011;6683;48.506;9.050;2022-12-18T11:58:06;28.27;;;19.53;;
13234;SDS011;6683;48.506;9.050;2022-12-18T12:01:22;26.83;;;17.73;;
13234;SDS011;6683;48.506;9.050;2022-12-18T12:04:45;24.23;;;17.43;;
13234;SDS011;6683;48.506;9.050;2022-12-18T12:08:07;27.33;;;18.30;;
13234;SDS011;6683;48.506;9.050;2022-12-18T12:11:19;26.27;;;18.67;;
13234;SDS011;6683;48.506;9.050;2022-12-18T12:14:38;29.50;;;18.47;;
13234;SDS011;6683;48.506;9.050;2022-12-18T12:17:56;26.90;;;17.60;;
13234;SDS011;6683;48.506;9.050;2022-12-18T12:21:09;31.73;;;19.33;;
13234;SDS011;6683;48.506;9.050;2022-12-18T12:24:23;32.37;;;19.80;;
13234;SDS011;6683;48.506;9.050;2022-12-18T12:27:40;32.50;;;21.27;;
13234;SDS011;6683;48.506;9.050;2022-12-18T12:30:56;37.13;;;20.90;;
13234;SDS011;6683;48.506;9.050;2022-12-18T12:34:15;34.43;;;19.97;;
13234;SDS011;6683;48.506;9.050;2022-12-18T12:37:24;39.00;;;21.47;;
13234;SDS011;6683;48.506;9.050;2022-12-18T12:40:39;39.23;;;21.07;;
13234;SDS011;6683;48.506;9.050;2022-12-18T12:43:46;37.20;;;21.37;;
13234;SDS011;6683;48.506;9.050;2022-12-18T12:46:50;44.67;;;24.40;;
13234;SDS011;6683;48.506;9.050;2022-12-18T12:49:57;41.93;;;23.27;;
13234;SDS011;6683;48.506;9.050;2022-12-18T12:53:05;39.60;;;22.57;;
13234;SDS011;6683;48.506;9.050;2022-12-18T12:56:11;34.40;;;21.20;;
13234;SDS011;6683;48.506;9.050;2022-12-18T12:59:19;36.03;;;20.80;;
13234;SDS011;6683;48.506;9.050;2022-12-18T13:02:34;39.23;;;21.47;;
13234;SDS011;6683;48.506;9.050;2022-12-18T13:05:45;43.63;;;23.33;;
13234;SDS011;6683;48.506;9.050;2022-12-18T13:08:55;38.87;;;23.73;;
13234;SDS011;6683;48.506;9.050;2022-12-18T13:12:01;39.30;;;23.57;;
13234;SDS011;6683;48.506;9.050;2022-12-18T13:15:23;41.80;;;22.93;;
13234;SDS011;6683;48.506;9.050;2022-12-18T13:18:33;82.37;;;46.73;;
13234;SDS011;6683;48.506;9.050;2022-12-18T13:21:36;57.40;;;30.03;;
13234;SDS011;6683;48.506;9.050;2022-12-18T13:24:38;46.60;;;25.53;;
13234;SDS011;6683;48.506;9.050;2022-12-18T13:31:14;42.23;;;24.00;;
13234;SDS011;6683;48.506;9.050;2022-12-18T13:38:42;46.47;;;23.87;;
13234;SDS011;6683;48.506;9.050;2022-12-18T13:41:46;50.83;;;24.20;;
13234;SDS011;6683;48.506;9.050;2022-12-18T13:44:50;38.53;;;22.37;;
13234;SDS011;6683;48.506;9.050;2022-12-18T13:47:53;42.93;;;23.37;;
13234;SDS011;6683;48.506;9.050;2022-12-18T13:51:01;45.47;;;24.17;;
13234;SDS011;6683;48.506;9.050;2022-12-18T13:54:13;44.80;;;26.17;;
13234;SDS011;6683;48.506;9.050;2022-12-18T13:57:26;45.73;;;24.57;;
13234;SDS011;6683;48.506;9.050;2022-12-18T14:00:30;46.67;;;25.70;;
13234;SDS011;6683;48.506;9.050;2022-12-18T14:03:33;46.23;;;23.47;;
13234;SDS011;6683;48.506;9.050;2022-12-18T14:06:37;43.63;;;24.40;;
13234;SDS011;6683;48.506;9.050;2022-12-18T14:09:40;47.43;;;23.67;;
13234;SDS011;6683;48.506;9.050;2022-12-18T14:12:46;43.00;;;23.33;;
13234;SDS011;6683;48.506;9.050;2022-12-18T14:16:00;47.20;;;23.13;;
13234;SDS011;6683;48.506;9.050;2022-12-18T14:19:05;40.43;;;23.40;;
13234;SDS011;6683;48.506;9.050;2022-12-18T14:22:16;39.57;;;22.23;;
13234;SDS011;6683;48.506;9.050;2022-12-18T14:25:21;39.43;;;22.03;;
13234;SDS011;6683;48.506;9.050;2022-12-18T14:28:26;49.50;;;24.87;;
13234;SDS011;6683;48.506;9.050;2022-12-18T14:31:29;40.70;;;23.10;;
13234;SDS011;6683;48.506;9.050;2022-12-18T14:34:33;46.17;;;25.20;;
13234;SDS011;6683;48.506;9.050;2022-12-18T14:37:36;46.13;;;24.90;;
13234;SDS011;6683;48.506;9.050;2022-12-18T14:40:39;47.47;;;25.80;;
13234;SDS011;6683;48.506;9.050;2022-12-18T14:43:42;46.87;;;25.10;;
13234;SDS011;6683;48.506;9.050;2022-12-18T14:46:47;48.97;;;25.93;;
13234;SDS011;6683;48.506;9.050;2022-12-18T14:49:50;45.27;;;24.77;;
13234;SDS011;6683;48.506;9.050;2022-12-18T14:52:54;39.97;;;23.37;;
13234;SDS011;6683;48.506;9.050;2022-12-18T14:55:57;45.00;;;23.43;;
13234;SDS011;6683;48.506;9.050;2022-12-18T14:58:59;47.77;;;24.07;;
13234;SDS011;6683;48.506;9.050;2022-12-18T15:02:08;44.83;;;25.80;;
13234;SDS011;6683;48.506;9.050;2022-12-18T15:05:19;42.23;;;23.30;;
13234;SDS011;6683;48.506;9.050;2022-12-18T15:08:35;46.20;;;23.97;;
13234;SDS011;6683;48.506;9.050;2022-12-18T15:11:45;48.83;;;24.57;;
13234;SDS011;6683;48.506;9.050;2022-12-18T15:14:48;47.43;;;25.73;;
13234;SDS011;6683;48.506;9.050;2022-12-18T15:17:56;47.97;;;25.07;;
13234;SDS011;6683;48.506;9.050;2022-12-18T15:21:03;50.73;;;25.20;;
13234;SDS011;6683;48.506;9.050;2022-12-18T15:24:16;49.67;;;26.03;;
13234;SDS011;6683;48.506;9.050;2022-12-18T15:27:25;47.30;;;24.20;;
13234;SDS011;6683;48.506;9.050;2022-12-18T15:30:34;45.87;;;25.53;;
13234;SDS011;6683;48.506;9.050;2022-12-18T15:33:37;51.60;;;26.17;;
13234;SDS011;6683;48.506;9.050;2022-12-18T15:36:42;46.07;;;24.53;;
13234;SDS011;6683;48.506;9.050;2022-12-18T15:39:46;43.20;;;23.30;;
13234;SDS011;6683;48.506;9.050;2022-12-18T15:42:49;50.73;;;24.80;;
13234;SDS011;6683;48.506;9.050;2022-12-18T15:46:13;43.93;;;24.03;;
13234;SDS011;6683;48.506;9.050;2022-12-18T15:49:18;45.97;;;25.10;;
13234;SDS011;6683;48.506;9.050;2022-12-18T15:52:20;50.07;;;24.90;;
13234;SDS011;6683;48.506;9.050;2022-12-18T15:55:27;49.03;;;27.33;;
13234;SDS011;6683;48.506;9.050;2022-12-18T15:58:47;46.97;;;25.27;;
13234;SDS011;6683;48.506;9.050;2022-12-18T16:01:49;50.40;;;26.30;;
13234;SDS011;6683;48.506;9.050;2022-12-18T16:04:54;51.13;;;26.27;;
13234;SDS011;6683;48.506;9.050;2022-12-18T16:07:56;48.03;;;25.30;;
13234;SDS011;6683;48.506;9.050;2022-12-18T16:11:00;51.77;;;26.83;;
13234;SDS011;6683;48.506;9.050;2022-12-18T16:14:04;53.03;;;27.87;;
13234;SDS011;6683;48.506;9.050;2022-12-18T16:17:14;52.80;;;27.17;;
13234;SDS011;6683;48.506;9.050;2022-12-18T16:20:17;46.37;;;26.37;;
13234;SDS011;6683;48.506;9.050;2022-12-18T16:23:22;46.07;;;24.53;;
13234;SDS011;6683;48.506;9.050;2022-12-18T16:26:26;44.00;;;25.80;;
13234;SDS011;6683;48.506;9.050;2022-12-18T16:29:29;55.67;;;27.67;;
13234;SDS011;6683;48.506;9.050;2022-12-18T16:32:31;47.23;;;24.73;;
13234;SDS011;6683;48.506;9.050;2022-12-18T16:35:34;49.10;;;26.13;;
13234;SDS011;6683;48.506;9.050;2022-12-18T16:38:37;44.07;;;25.20;;
13234;SDS011;6683;48.506;9.050;2022-12-18T16:41:41;47.87;;;26.90;;
13234;SDS011;6683;48.506;9.050;2022-12-18T16:44:44;46.03;;;26.40;;
13234;SDS011;6683;48.506;9.050;2022-12-18T16:47:48;47.27;;;25.23;;
13234;SDS011;6683;48.506;9.050;2022-12-18T16:50:50;47.13;;;26.40;;
13234;SDS011;6683;48.506;9.050;2022-12-18T16:53:54;55.57;;;27.73;;
13234;SDS011;6683;48.506;9.050;2022-12-18T16:56:59;49.27;;;28.30;;
13234;SDS011;6683;48.506;9.050;2022-12-18T17:00:02;50.27;;;27.60;;
13234;SDS011;6683;48.506;9.050;2022-12-18T17:03:06;49.73;;;27.63;;
13234;SDS011;6683;48.506;9.050;2022-12-18T17:06:08;51.90;;;28.00;;
13234;SDS011;6683;48.506;9.050;2022-12-18T17:09:11;48.87;;;28.03;;
13234;SDS011;6683;48.506;9.050;2022-12-18T17:12:17;52.03;;;27.53;;
13234;SDS011;6683;48.506;9.050;2022-12-18T17:15:19;52.20;;;29.13;;
13234;SDS011;6683;48.506;9.050;2022-12-18T17:18:21;50.80;;;29.13;;
13234;SDS011;6683;48.506;9.050;2022-12-18T17:21:24;53.93;;;28.00;;
13234;SDS011;6683;48.506;9.050;2022-12-18T17:24:27;52.50;;;28.10;;
13234;SDS011;6683;48.506;9.050;2022-12-18T17:27:31;52.00;;;28.53;;
13234;SDS011;6683;48.506;9.050;2022-12-18T17:30:34;48.30;;;26.33;;
13234;SDS011;6683;48.506;9.050;2022-12-18T17:33:36;51.33;;;28.83;;
13234;SDS011;6683;48.506;9.050;2022-12-18T17:36:39;58.33;;;30.70;;
13234;SDS011;6683;48.506;9.050;2022-12-18T17:39:41;51.73;;;27.40;;
13234;SDS011;6683;48.506;9.050;2022-12-18T17:42:45;59.87;;;29.93;;
13234;SDS011;6683;48.506;9.050;2022-12-18T17:45:47;53.37;;;29.83;;
13234;SDS011;6683;48.506;9.050;2022-12-18T17:48:50;57.00;;;31.30;;
13234;SDS011;6683;48.506;9.050;2022-12-18T17:51:53;62.47;;;30.37;;
13234;SDS011;6683;48.506;9.050;2022-12-18T17:54:55;55.33;;;29.00;;
13234;SDS011;6683;48.506;9.050;2022-12-18T17:57:59;58.33;;;30.30;;
13234;SDS011;6683;48.506;9.050;2022-12-18T18:01:01;58.73;;;30.47;;
13234;SDS011;6683;48.506;9.050;2022-12-18T18:04:05;49.43;;;27.73;;
13234;SDS011;6683;48.506;9.050;2022-12-18T18:07:08;55.13;;;30.50;;
13234;SDS011;6683;48.506;9.050;2022-12-18T18:10:10;54.00;;;30.33;;
13234;SDS011;6683;48.506;9.050;2022-12-18T18:13:16;54.50;;;30.93;;
13234;SDS011;6683;48.506;9.050;2022-12-18T18:16:41;61.23;;;33.33;;
13234;SDS011;6683;48.506;9.050;2022-12-18T18:19:46;60.70;;;31.57;;
13234;SDS011;6683;48.506;9.050;2022-12-18T18:22:48;59.53;;;32.83;;
13234;SDS011;6683;48.506;9.050;2022-12-18T18:25:50;52.70;;;30.17;;
13234;SDS011;6683;48.506;9.050;2022-12-18T18:28:54;55.83;;;30.30;;
13234;SDS011;6683;48.506;9.050;2022-12-18T18:31:57;57.30;;;31.57;;
13234;SDS011;6683;48.506;9.050;2022-12-18T18:34:59;52.83;;;29.83;;